sensor_id;sensor_type;location;lat;lon;timestamp;P1;durP1;ratioP1;P2;durP2;ratioP2
27223;SDS011;14965;50.660;13.226;2023-03-01T00:10:21;28.80;;;14.38;;
27223;SDS011;14965;50.660;13.226;2023-03-01T00:14:05;32.20;;;15.05;;
27223;SDS011;14965;50.660;13.226;2023-03-01T00:17:48;29.52;;;14.25;;
27223;SDS011;14965;50.660;13.226;2023-03-01T00:23:37;29.75;;;14.05;;
27223;SDS011;14965;50.660;13.226;2023-03-01T00:24:53;30.05;;;14.02;;
27223;SDS011;14965;50.660;13.226;2023-03-01T00:32:18;31.50;;;14.88;;
27223;SDS011;14965;50.660;13.226;2023-03-01T00:39:01;29.58;;;15.15;;
27223;SDS011;14965;50.660;13.226;2023-03-01T00:42:21;31.45;;;15.15;;
27223;SDS011;14965;50.660;13.226;2023-03-01T01:25:53;28.20;;;14.77;;
27223;SDS011;14965;50.660;13.226;2023-03-01T01:29:26;27.23;;;14.80;;
27223;SDS011;14965;50.660;13.226;2023-03-01T01:32:36;33.08;;;15.60;;
27223;SDS011;14965;50.660;13.226;2023-03-01T01:39:15;29.83;;;15.52;;
27223;SDS011;14965;50.660;13.226;2023-03-01T01:42:44;33.55;;;15.45;;
27223;SDS011;14965;50.660;13.226;2023-03-01T01:48:49;33.85;;;15.98;;
27223;SDS011;14965;50.660;13.226;2023-03-01T01:56:11;35.20;;;15.93;;
27223;SDS011;14965;50.660;13.226;2023-03-01T02:10:04;35.25;;;17.25;;
27223;SDS011;14965;50.660;13.226;2023-03-01T04:11:00;45.15;;;19.20;;
27223;SDS011;14965;50.660;13.226;2023-03-01T04:22:57;57.38;;;22.35;;
27223;SDS011;14965;50.660;13.226;2023-03-01T04:25:47;53.15;;;21.95;;
27223;SDS011;14965;50.660;13.226;2023-03-01T04:32:54;48.55;;;19.83;;
27223;SDS011;14965;50.660;13.226;2023-03-01T04:35:49;36.63;;;17.20;;
27223;SDS011;14965;50.660;13.226;2023-03-01T04:42:25;37.65;;;17.98;;
27223;SDS011;14965;50.660;13.226;2023-03-01T04:45:47;42.45;;;19.20;;
27223;SDS011;14965;50.660;13.226;2023-03-01T04:49:16;42.83;;;18.42;;
27223;SDS011;14965;50.660;13.226;2023-03-01T04:52:03;40.05;;;18.02;;
27223;SDS011;14965;50.660;13.226;2023-03-01T04:54:52;44.95;;;19.83;;
27223;SDS011;14965;50.660;13.226;2023-03-01T04:57:43;37.50;;;17.83;;
27223;SDS011;14965;50.660;13.226;2023-03-01T05:00:11;41.38;;;19.45;;
27223;SDS011;14965;50.660;13.226;2023-03-01T05:02:48;39.42;;;18.13;;
27223;SDS011;14965;50.660;13.226;2023-03-01T05:05:21;39.05;;;18.48;;
27223;SDS011;14965;50.660;13.226;2023-03-01T05:07:50;41.53;;;18.63;;
27223;SDS011;14965;50.660;13.226;2023-03-01T05:10:24;41.30;;;17.65;;
27223;SDS011;14965;50.660;13.226;2023-03-01T05:12:58;40.85;;;18.10;;
27223;SDS011;14965;50.660;13.226;2023-03-01T05:22:36;42.22;;;17.52;;
27223;SDS011;14965;50.660;13.226;2023-03-01T05:25:24;41.83;;;17.50;;
27223;SDS011;14965;50.660;13.226;2023-03-01T05:28:00;39.58;;;17.00;;
27223;SDS011;14965;50.660;13.226;2023-03-01T05:42:33;38.33;;;16.75;;
27223;SDS011;14965;50.660;13.226;2023-03-01T05:46:19;38.72;;;18.45;;
27223;SDS011;14965;50.660;13.226;2023-03-01T05:48:25;46.30;;;19.42;;
27223;SDS011;14965;50.660;13.226;2023-03-01T05:51:16;47.28;;;19.45;;
27223;SDS011;14965;50.660;13.226;2023-03-01T05:54:03;45.53;;;19.35;;
27223;SDS011;14965;50.660;13.226;2023-03-01T06:04:29;42.08;;;18.50;;
27223;SDS011;14965;50.660;13.226;2023-03-01T06:07:22;46.95;;;20.48;;
27223;SDS011;14965;50.660;13.226;2023-03-01T06:18:10;38.83;;;17.00;;
27223;SDS011;14965;50.660;13.226;2023-03-01T06:27:53;32.67;;;16.23;;
27223;SDS011;14965;50.660;13.226;2023-03-01T06:31:13;37.72;;;16.88;;
27223;SDS011;14965;50.660;13.226;2023-03-01T06:33:51;46.83;;;21.73;;
27223;SDS011;14965;50.660;13.226;2023-03-01T06:37:28;47.15;;;21.80;;
27223;SDS011;14965;50.660;13.226;2023-03-01T06:40:24;45.72;;;21.90;;
27223;SDS011;14965;50.660;13.226;2023-03-01T06:43:25;49.70;;;24.95;;
27223;SDS011;14965;50.660;13.226;2023-03-01T06:46:40;42.72;;;20.48;;
27223;SDS011;14965;50.660;13.226;2023-03-01T06:49:20;41.90;;;20.58;;
27223;SDS011;14965;50.660;13.226;2023-03-01T06:52:05;48.88;;;20.90;;
27223;SDS011;14965;50.660;13.226;2023-03-01T06:58:33;42.55;;;19.33;;
27223;SDS011;14965;50.660;13.226;2023-03-01T07:01:17;48.15;;;22.30;;
27223;SDS011;14965;50.660;13.226;2023-03-01T07:03:59;44.30;;;21.67;;
27223;SDS011;14965;50.660;13.226;2023-03-01T07:10:45;45.20;;;19.70;;
27223;SDS011;14965;50.660;13.226;2023-03-01T07:13:26;41.58;;;19.30;;
27223;SDS011;14965;50.660;13.226;2023-03-01T07:15:56;40.70;;;20.05;;
27223;SDS011;14965;50.660;13.226;2023-03-01T07:18:24;46.08;;;20.55;;
27223;SDS011;14965;50.660;13.226;2023-03-01T07:20:52;51.08;;;22.52;;
27223;SDS011;14965;50.660;13.226;2023-03-01T07:23:23;56.05;;;27.38;;
27223;SDS011;14965;50.660;13.226;2023-03-01T07:25:57;64.07;;;26.60;;
27223;SDS011;14965;50.660;13.226;2023-03-01T07:28:23;62.13;;;25.73;;
27223;SDS011;14965;50.660;13.226;2023-03-01T07:30:50;60.35;;;25.75;;
27223;SDS011;14965;50.660;13.226;2023-03-01T07:33:17;63.42;;;24.55;;
27223;SDS011;14965;50.660;13.226;2023-03-01T07:35:55;63.28;;;25.92;;
27223;SDS011;14965;50.660;13.226;2023-03-01T07:38:25;68.50;;;28.77;;
27223;SDS011;14965;50.660;13.226;2023-03-01T07:40:58;81.93;;;34.97;;
27223;SDS011;14965;50.660;13.226;2023-03-01T07:43:26;85.63;;;38.53;;
27223;SDS011;14965;50.660;13.226;2023-03-01T07:45:53;103.28;;;39.25;;
27223;SDS011;14965;50.660;13.226;2023-03-01T07:48:19;105.65;;;38.13;;
27223;SDS011;14965;50.660;13.226;2023-03-01T07:50:46;76.18;;;30.38;;
27223;SDS011;14965;50.660;13.226;2023-03-01T07:53:15;71.25;;;29.55;;
27223;SDS011;14965;50.660;13.226;2023-03-01T07:55:43;64.25;;;28.95;;
27223;SDS011;14965;50.660;13.226;2023-03-01T07:58:11;60.30;;;28.75;;
27223;SDS011;14965;50.660;13.226;2023-03-01T08:00:37;60.67;;;29.17;;
27223;SDS011;14965;50.660;13.226;2023-03-01T08:03:03;60.35;;;28.60;;
27223;SDS011;14965;50.660;13.226;2023-03-01T08:05:29;58.50;;;27.75;;
27223;SDS011;14965;50.660;13.226;2023-03-01T08:07:55;57.60;;;26.92;;
27223;SDS011;14965;50.660;13.226;2023-03-01T08:10:21;57.63;;;28.15;;
27223;SDS011;14965;50.660;13.226;2023-03-01T08:12:47;60.55;;;29.60;;
27223;SDS011;14965;50.660;13.226;2023-03-01T08:15:17;71.50;;;32.30;;
27223;SDS011;14965;50.660;13.226;2023-03-01T08:17:43;65.25;;;32.42;;
27223;SDS011;14965;50.660;13.226;2023-03-01T08:20:10;68.18;;;33.92;;
27223;SDS011;14965;50.660;13.226;2023-03-01T08:22:36;62.10;;;31.95;;
27223;SDS011;14965;50.660;13.226;2023-03-01T08:25:02;63.47;;;28.48;;
27223;SDS011;14965;50.660;13.226;2023-03-01T08:27:29;64.90;;;28.27;;
27223;SDS011;14965;50.660;13.226;2023-03-01T08:29:55;58.67;;;28.35;;
27223;SDS011;14965;50.660;13.226;2023-03-01T08:32:22;60.05;;;30.58;;
27223;SDS011;14965;50.660;13.226;2023-03-01T08:34:50;65.32;;;30.02;;
27223;SDS011;14965;50.660;13.226;2023-03-01T08:37:19;60.22;;;29.30;;
27223;SDS011;14965;50.660;13.226;2023-03-01T08:39:48;61.90;;;28.90;;
27223;SDS011;14965;50.660;13.226;2023-03-01T08:42:17;65.10;;;31.50;;
27223;SDS011;14965;50.660;13.226;2023-03-01T08:44:45;65.32;;;29.30;;
27223;SDS011;14965;50.660;13.226;2023-03-01T08:47:14;69.22;;;31.75;;
27223;SDS011;14965;50.660;13.226;2023-03-01T08:49:41;82.95;;;41.67;;
27223;SDS011;14965;50.660;13.226;2023-03-01T08:52:08;79.15;;;41.00;;
27223;SDS011;14965;50.660;13.226;2023-03-01T08:54:34;78.15;;;38.15;;
27223;SDS011;14965;50.660;13.226;2023-03-01T08:57:01;74.72;;;37.42;;
27223;SDS011;14965;50.660;13.226;2023-03-01T08:59:27;62.15;;;31.92;;
27223;SDS011;14965;50.660;13.226;2023-03-01T09:01:53;66.55;;;32.58;;
27223;SDS011;14965;50.660;13.226;2023-03-01T09:04:23;64.10;;;32.28;;
27223;SDS011;14965;50.660;13.226;2023-03-01T09:06:51;63.22;;;29.65;;
27223;SDS011;14965;50.660;13.226;2023-03-01T09:09:17;59.50;;;28.88;;
27223;SDS011;14965;50.660;13.226;2023-03-01T09:11:43;54.45;;;26.55;;
27223;SDS011;14965;50.660;13.226;2023-03-01T09:14:10;66.03;;;32.20;;
27223;SDS011;14965;50.660;13.226;2023-03-01T09:16:37;58.42;;;28.90;;
27223;SDS011;14965;50.660;13.226;2023-03-01T09:19:03;61.42;;;29.33;;
27223;SDS011;14965;50.660;13.226;2023-03-01T09:21:29;63.55;;;30.10;;
27223;SDS011;14965;50.660;13.226;2023-03-01T09:23:57;64.93;;;29.65;;
27223;SDS011;14965;50.660;13.226;2023-03-01T09:26:23;53.95;;;28.63;;
27223;SDS011;14965;50.660;13.226;2023-03-01T09:28:51;62.40;;;28.25;;
27223;SDS011;14965;50.660;13.226;2023-03-01T09:31:20;54.88;;;28.10;;
27223;SDS011;14965;50.660;13.226;2023-03-01T09:33:49;57.40;;;28.95;;
27223;SDS011;14965;50.660;13.226;2023-03-01T09:38:46;53.72;;;26.13;;
27223;SDS011;14965;50.660;13.226;2023-03-01T09:41:18;52.78;;;25.48;;
27223;SDS011;14965;50.660;13.226;2023-03-01T09:44:10;56.38;;;27.10;;
27223;SDS011;14965;50.660;13.226;2023-03-01T09:46:46;51.95;;;26.27;;
27223;SDS011;14965;50.660;13.226;2023-03-01T09:49:14;45.42;;;24.20;;
27223;SDS011;14965;50.660;13.226;2023-03-01T09:51:46;51.05;;;25.85;;
27223;SDS011;14965;50.660;13.226;2023-03-01T09:54:21;49.13;;;25.58;;
27223;SDS011;14965;50.660;13.226;2023-03-01T09:56:52;45.80;;;25.33;;
27223;SDS011;14965;50.660;13.226;2023-03-01T09:59:31;55.25;;;27.50;;
27223;SDS011;14965;50.660;13.226;2023-03-01T10:02:19;43.67;;;23.52;;
27223;SDS011;14965;50.660;13.226;2023-03-01T10:04:56;35.47;;;18.88;;
27223;SDS011;14965;50.660;13.226;2023-03-01T10:07:39;35.65;;;18.83;;
27223;SDS011;14965;50.660;13.226;2023-03-01T10:10:22;34.50;;;19.13;;
27223;SDS011;14965;50.660;13.226;2023-03-01T10:12:58;34.75;;;19.38;;
27223;SDS011;14965;50.660;13.226;2023-03-01T10:15:34;39.80;;;19.70;;
27223;SDS011;14965;50.660;13.226;2023-03-01T10:18:19;35.75;;;18.23;;
27223;SDS011;14965;50.660;13.226;2023-03-01T10:20:56;35.05;;;18.63;;
27223;SDS011;14965;50.660;13.226;2023-03-01T10:23:42;33.47;;;18.10;;
27223;SDS011;14965;50.660;13.226;2023-03-01T10:26:44;34.05;;;17.90;;
27223;SDS011;14965;50.660;13.226;2023-03-01T10:40:04;30.83;;;17.00;;
27223;SDS011;14965;50.660;13.226;2023-03-01T10:42:35;32.05;;;15.77;;
27223;SDS011;14965;50.660;13.226;2023-03-01T10:45:16;29.45;;;16.73;;
27223;SDS011;14965;50.660;13.226;2023-03-01T10:48:04;31.75;;;18.38;;
27223;SDS011;14965;50.660;13.226;2023-03-01T10:50:38;37.45;;;21.52;;
27223;SDS011;14965;50.660;13.226;2023-03-01T10:53:20;34.80;;;19.05;;
27223;SDS011;14965;50.660;13.226;2023-03-01T10:56:03;36.08;;;19.83;;
27223;SDS011;14965;50.660;13.226;2023-03-01T10:58:34;31.38;;;17.50;;
27223;SDS011;14965;50.660;13.226;2023-03-01T11:01:04;34.28;;;17.75;;
27223;SDS011;14965;50.660;13.226;2023-03-01T11:04:03;34.72;;;16.95;;
27223;SDS011;14965;50.660;13.226;2023-03-01T11:06:39;36.42;;;19.52;;
27223;SDS011;14965;50.660;13.226;2023-03-01T11:09:15;31.52;;;16.25;;
27223;SDS011;14965;50.660;13.226;2023-03-01T11:11:46;25.65;;;13.35;;
27223;SDS011;14965;50.660;13.226;2023-03-01T11:14:20;26.55;;;14.45;;
27223;SDS011;14965;50.660;13.226;2023-03-01T11:16:49;24.65;;;12.70;;
27223;SDS011;14965;50.660;13.226;2023-03-01T11:19:26;24.42;;;13.18;;
27223;SDS011;14965;50.660;13.226;2023-03-01T11:21:54;23.15;;;12.65;;
27223;SDS011;14965;50.660;13.226;2023-03-01T11:24:29;23.35;;;13.40;;
27223;SDS011;14965;50.660;13.226;2023-03-01T11:27:04;24.75;;;13.65;;
27223;SDS011;14965;50.660;13.226;2023-03-01T11:29:42;25.65;;;13.18;;
27223;SDS011;14965;50.660;13.226;2023-03-01T11:32:13;23.70;;;12.90;;
27223;SDS011;14965;50.660;13.226;2023-03-01T11:34:42;22.63;;;12.63;;
27223;SDS011;14965;50.660;13.226;2023-03-01T11:37:16;22.00;;;12.02;;
27223;SDS011;14965;50.660;13.226;2023-03-01T11:39:58;24.73;;;12.63;;
27223;SDS011;14965;50.660;13.226;2023-03-01T11:42:39;26.63;;;12.82;;
27223;SDS011;14965;50.660;13.226;2023-03-01T11:45:17;23.48;;;12.52;;
27223;SDS011;14965;50.660;13.226;2023-03-01T11:47:55;25.52;;;12.32;;
27223;SDS011;14965;50.660;13.226;2023-03-01T11:50:44;25.98;;;13.48;;
27223;SDS011;14965;50.660;13.226;2023-03-01T11:53:18;25.45;;;13.30;;
27223;SDS011;14965;50.660;13.226;2023-03-01T11:56:18;24.95;;;13.07;;
27223;SDS011;14965;50.660;13.226;2023-03-01T12:02:20;24.33;;;13.07;;
27223;SDS011;14965;50.660;13.226;2023-03-01T12:05:20;32.42;;;15.85;;
27223;SDS011;14965;50.660;13.226;2023-03-01T12:08:10;27.70;;;15.07;;
27223;SDS011;14965;50.660;13.226;2023-03-01T12:10:43;29.67;;;15.95;;
27223;SDS011;14965;50.660;13.226;2023-03-01T12:26:10;47.97;;;27.33;;
27223;SDS011;14965;50.660;13.226;2023-03-01T12:36:53;51.38;;;26.55;;
27223;SDS011;14965;50.660;13.226;2023-03-01T12:39:51;52.88;;;28.23;;
27223;SDS011;14965;50.660;13.226;2023-03-01T12:42:41;49.00;;;27.85;;
27223;SDS011;14965;50.660;13.226;2023-03-01T12:45:34;54.17;;;27.65;;
27223;SDS011;14965;50.660;13.226;2023-03-01T12:48:29;53.58;;;30.20;;
27223;SDS011;14965;50.660;13.226;2023-03-01T12:51:08;59.92;;;30.33;;
27223;SDS011;14965;50.660;13.226;2023-03-01T12:53:41;57.90;;;30.65;;
27223;SDS011;14965;50.660;13.226;2023-03-01T12:56:14;60.88;;;32.20;;
27223;SDS011;14965;50.660;13.226;2023-03-01T12:58:47;61.42;;;32.78;;
27223;SDS011;14965;50.660;13.226;2023-03-01T13:01:27;61.42;;;31.90;;
27223;SDS011;14965;50.660;13.226;2023-03-01T13:04:12;59.38;;;31.42;;
27223;SDS011;14965;50.660;13.226;2023-03-01T13:06:54;58.67;;;31.70;;
27223;SDS011;14965;50.660;13.226;2023-03-01T13:09:39;62.38;;;32.38;;
27223;SDS011;14965;50.660;13.226;2023-03-01T13:15:28;61.20;;;31.75;;
27223;SDS011;14965;50.660;13.226;2023-03-01T13:18:00;57.15;;;31.85;;
27223;SDS011;14965;50.660;13.226;2023-03-01T13:20:31;61.25;;;33.30;;
27223;SDS011;14965;50.660;13.226;2023-03-01T13:23:11;64.90;;;33.95;;
27223;SDS011;14965;50.660;13.226;2023-03-01T13:26:05;63.35;;;32.88;;
27223;SDS011;14965;50.660;13.226;2023-03-01T13:28:39;66.88;;;34.83;;
27223;SDS011;14965;50.660;13.226;2023-03-01T13:34:44;66.50;;;34.88;;
27223;SDS011;14965;50.660;13.226;2023-03-01T13:37:20;64.20;;;34.35;;
27223;SDS011;14965;50.660;13.226;2023-03-01T13:40:01;67.75;;;35.28;;
27223;SDS011;14965;50.660;13.226;2023-03-01T13:42:50;61.35;;;34.20;;
27223;SDS011;14965;50.660;13.226;2023-03-01T13:45:26;69.75;;;36.38;;
27223;SDS011;14965;50.660;13.226;2023-03-01T13:48:04;69.50;;;35.63;;
27223;SDS011;14965;50.660;13.226;2023-03-01T13:50:43;70.15;;;35.42;;
27223;SDS011;14965;50.660;13.226;2023-03-01T13:53:16;67.43;;;35.72;;
27223;SDS011;14965;50.660;13.226;2023-03-01T13:55:47;68.78;;;36.40;;
27223;SDS011;14965;50.660;13.226;2023-03-01T13:58:20;66.90;;;36.45;;
27223;SDS011;14965;50.660;13.226;2023-03-01T14:00:54;67.75;;;34.70;;
27223;SDS011;14965;50.660;13.226;2023-03-01T14:03:23;63.78;;;35.33;;
27223;SDS011;14965;50.660;13.226;2023-03-01T14:06:01;67.97;;;34.17;;
27223;SDS011;14965;50.660;13.226;2023-03-01T14:08:31;67.75;;;34.65;;
27223;SDS011;14965;50.660;13.226;2023-03-01T14:14:36;63.67;;;33.85;;
27223;SDS011;14965;50.660;13.226;2023-03-01T14:17:45;65.38;;;34.50;;
27223;SDS011;14965;50.660;13.226;2023-03-01T14:20:23;61.87;;;32.70;;
27223;SDS011;14965;50.660;13.226;2023-03-01T14:22:53;61.17;;;32.45;;
27223;SDS011;14965;50.660;13.226;2023-03-01T14:25:24;61.30;;;33.20;;
27223;SDS011;14965;50.660;13.226;2023-03-01T14:27:57;64.70;;;33.92;;
27223;SDS011;14965;50.660;13.226;2023-03-01T14:30:30;65.80;;;33.08;;
27223;SDS011;14965;50.660;13.226;2023-03-01T14:33:02;62.47;;;33.10;;
27223;SDS011;14965;50.660;13.226;2023-03-01T14:35:32;65.47;;;33.47;;
27223;SDS011;14965;50.660;13.226;2023-03-01T14:38:00;63.20;;;33.65;;
27223;SDS011;14965;50.660;13.226;2023-03-01T14:40:27;63.28;;;33.28;;
27223;SDS011;14965;50.660;13.226;2023-03-01T14:42:56;65.85;;;34.05;;
27223;SDS011;14965;50.660;13.226;2023-03-01T14:45:27;62.65;;;32.47;;
27223;SDS011;14965;50.660;13.226;2023-03-01T14:50:26;68.35;;;33.17;;
27223;SDS011;14965;50.660;13.226;2023-03-01T14:53:12;65.47;;;33.45;;
27223;SDS011;14965;50.660;13.226;2023-03-01T14:55:44;65.65;;;33.13;;
27223;SDS011;14965;50.660;13.226;2023-03-01T14:58:18;62.47;;;32.60;;
27223;SDS011;14965;50.660;13.226;2023-03-01T15:00:48;63.05;;;34.85;;
27223;SDS011;14965;50.660;13.226;2023-03-01T15:03:20;59.55;;;32.60;;
27223;SDS011;14965;50.660;13.226;2023-03-01T15:05:56;63.20;;;33.67;;
27223;SDS011;14965;50.660;13.226;2023-03-01T15:08:24;60.38;;;31.33;;
27223;SDS011;14965;50.660;13.226;2023-03-01T15:10:56;60.13;;;33.30;;
27223;SDS011;14965;50.660;13.226;2023-03-01T15:13:28;68.88;;;35.65;;
27223;SDS011;14965;50.660;13.226;2023-03-01T15:16:03;63.83;;;32.50;;
27223;SDS011;14965;50.660;13.226;2023-03-01T15:18:34;58.00;;;30.55;;
27223;SDS011;14965;50.660;13.226;2023-03-01T15:21:08;60.15;;;32.20;;
27223;SDS011;14965;50.660;13.226;2023-03-01T15:23:47;58.92;;;30.45;;
27223;SDS011;14965;50.660;13.226;2023-03-01T15:26:21;56.95;;;29.55;;
27223;SDS011;14965;50.660;13.226;2023-03-01T15:28:51;59.67;;;30.27;;
27223;SDS011;14965;50.660;13.226;2023-03-01T15:31:23;53.95;;;30.00;;
27223;SDS011;14965;50.660;13.226;2023-03-01T15:33:52;57.63;;;30.27;;
27223;SDS011;14965;50.660;13.226;2023-03-01T15:36:36;59.47;;;31.40;;
27223;SDS011;14965;50.660;13.226;2023-03-01T15:42:04;52.08;;;28.65;;
27223;SDS011;14965;50.660;13.226;2023-03-01T15:44:34;57.42;;;29.50;;
27223;SDS011;14965;50.660;13.226;2023-03-01T15:47:03;55.33;;;29.48;;
27223;SDS011;14965;50.660;13.226;2023-03-01T15:49:50;54.35;;;29.10;;
27223;SDS011;14965;50.660;13.226;2023-03-01T15:57:38;54.35;;;29.83;;
27223;SDS011;14965;50.660;13.226;2023-03-01T16:00:05;54.65;;;28.35;;
27223;SDS011;14965;50.660;13.226;2023-03-01T16:02:36;55.25;;;29.55;;
27223;SDS011;14965;50.660;13.226;2023-03-01T16:05:03;56.13;;;30.00;;
27223;SDS011;14965;50.660;13.226;2023-03-01T16:07:30;70.65;;;38.75;;
27223;SDS011;14965;50.660;13.226;2023-03-01T16:09:56;54.90;;;32.67;;
27223;SDS011;14965;50.660;13.226;2023-03-01T16:12:22;53.35;;;28.80;;
27223;SDS011;14965;50.660;13.226;2023-03-01T16:14:49;59.45;;;29.30;;
27223;SDS011;14965;50.660;13.226;2023-03-01T16:19:51;55.15;;;27.80;;
27223;SDS011;14965;50.660;13.226;2023-03-01T16:22:17;53.20;;;27.90;;
27223;SDS011;14965;50.660;13.226;2023-03-01T16:24:43;59.67;;;28.05;;
27223;SDS011;14965;50.660;13.226;2023-03-01T16:27:09;94.85;;;48.10;;
27223;SDS011;14965;50.660;13.226;2023-03-01T16:29:35;73.07;;;36.10;;
27223;SDS011;14965;50.660;13.226;2023-03-01T16:32:01;59.90;;;30.52;;
27223;SDS011;14965;50.660;13.226;2023-03-01T16:34:27;309.50;;;138.82;;
27223;SDS011;14965;50.660;13.226;2023-03-01T16:36:54;68.72;;;33.88;;
27223;SDS011;14965;50.660;13.226;2023-03-01T16:39:20;88.35;;;44.17;;
27223;SDS011;14965;50.660;13.226;2023-03-01T16:41:46;61.03;;;33.10;;
27223;SDS011;14965;50.660;13.226;2023-03-01T16:44:12;59.35;;;31.52;;
27223;SDS011;14965;50.660;13.226;2023-03-01T16:46:40;51.22;;;26.90;;
27223;SDS011;14965;50.660;13.226;2023-03-01T16:49:07;51.90;;;27.98;;
27223;SDS011;14965;50.660;13.226;2023-03-01T16:51:33;56.22;;;29.45;;
27223;SDS011;14965;50.660;13.226;2023-03-01T16:54:00;56.60;;;28.73;;
27223;SDS011;14965;50.660;13.226;2023-03-01T16:56:33;63.03;;;32.03;;
27223;SDS011;14965;50.660;13.226;2023-03-01T16:58:59;53.25;;;27.15;;
27223;SDS011;14965;50.660;13.226;2023-03-01T17:01:28;54.95;;;28.35;;
27223;SDS011;14965;50.660;13.226;2023-03-01T17:03:54;52.90;;;27.83;;
27223;SDS011;14965;50.660;13.226;2023-03-01T17:06:20;48.63;;;26.73;;
27223;SDS011;14965;50.660;13.226;2023-03-01T17:08:46;53.75;;;27.38;;
27223;SDS011;14965;50.660;13.226;2023-03-01T17:11:14;54.13;;;26.85;;
27223;SDS011;14965;50.660;13.226;2023-03-01T17:13:46;49.42;;;26.70;;
27223;SDS011;14965;50.660;13.226;2023-03-01T17:16:12;55.78;;;28.15;;
27223;SDS011;14965;50.660;13.226;2023-03-01T17:18:41;49.25;;;25.85;;
27223;SDS011;14965;50.660;13.226;2023-03-01T17:21:08;66.88;;;33.05;;
27223;SDS011;14965;50.660;13.226;2023-03-01T17:23:36;67.18;;;33.92;;
27223;SDS011;14965;50.660;13.226;2023-03-01T17:26:04;66.30;;;34.40;;
27223;SDS011;14965;50.660;13.226;2023-03-01T17:28:33;69.75;;;36.42;;
27223;SDS011;14965;50.660;13.226;2023-03-01T17:31:01;66.95;;;38.22;;
27223;SDS011;14965;50.660;13.226;2023-03-01T17:33:29;62.42;;;33.38;;
27223;SDS011;14965;50.660;13.226;2023-03-01T17:35:56;66.68;;;34.90;;
27223;SDS011;14965;50.660;13.226;2023-03-01T17:38:23;70.35;;;35.72;;
27223;SDS011;14965;50.660;13.226;2023-03-01T17:40:50;75.38;;;37.50;;
27223;SDS011;14965;50.660;13.226;2023-03-01T17:43:16;65.18;;;34.05;;
27223;SDS011;14965;50.660;13.226;2023-03-01T17:45:44;70.72;;;35.17;;
27223;SDS011;14965;50.660;13.226;2023-03-01T17:48:10;69.03;;;35.50;;
27223;SDS011;14965;50.660;13.226;2023-03-01T17:50:37;103.25;;;48.25;;
27223;SDS011;14965;50.660;13.226;2023-03-01T17:53:03;126.13;;;59.20;;
27223;SDS011;14965;50.660;13.226;2023-03-01T17:55:30;144.45;;;67.90;;
27223;SDS011;14965;50.660;13.226;2023-03-01T17:57:56;137.77;;;67.50;;
27223;SDS011;14965;50.660;13.226;2023-03-01T18:00:22;100.40;;;49.83;;
27223;SDS011;14965;50.660;13.226;2023-03-01T18:02:50;74.18;;;37.20;;
27223;SDS011;14965;50.660;13.226;2023-03-01T18:05:18;71.47;;;34.97;;
27223;SDS011;14965;50.660;13.226;2023-03-01T18:07:44;115.35;;;56.28;;
27223;SDS011;14965;50.660;13.226;2023-03-01T18:10:10;110.70;;;52.70;;
27223;SDS011;14965;50.660;13.226;2023-03-01T18:12:36;91.97;;;43.78;;
27223;SDS011;14965;50.660;13.226;2023-03-01T18:15:03;104.03;;;49.10;;
27223;SDS011;14965;50.660;13.226;2023-03-01T18:17:30;101.18;;;50.22;;
27223;SDS011;14965;50.660;13.226;2023-03-01T18:19:57;88.20;;;43.58;;
27223;SDS011;14965;50.660;13.226;2023-03-01T18:22:23;78.65;;;39.50;;
27223;SDS011;14965;50.660;13.226;2023-03-01T18:24:49;79.70;;;38.88;;
27223;SDS011;14965;50.660;13.226;2023-03-01T18:27:15;70.88;;;36.67;;
27223;SDS011;14965;50.660;13.226;2023-03-01T18:29:42;74.68;;;37.08;;
27223;SDS011;14965;50.660;13.226;2023-03-01T18:32:08;73.80;;;39.47;;
27223;SDS011;14965;50.660;13.226;2023-03-01T18:34:34;75.55;;;40.33;;
27223;SDS011;14965;50.660;13.226;2023-03-01T18:37:02;73.95;;;37.55;;
27223;SDS011;14965;50.660;13.226;2023-03-01T18:39:27;80.43;;;40.95;;
27223;SDS011;14965;50.660;13.226;2023-03-01T18:41:53;142.35;;;63.72;;
27223;SDS011;14965;50.660;13.226;2023-03-01T18:44:19;123.72;;;58.85;;
27223;SDS011;14965;50.660;13.226;2023-03-01T18:46:45;113.55;;;57.03;;
27223;SDS011;14965;50.660;13.226;2023-03-01T18:49:12;101.28;;;51.53;;
27223;SDS011;14965;50.660;13.226;2023-03-01T18:51:39;110.15;;;52.45;;
27223;SDS011;14965;50.660;13.226;2023-03-01T18:54:08;89.78;;;41.95;;
27223;SDS011;14965;50.660;13.226;2023-03-01T18:59:02;90.90;;;41.75;;
27223;SDS011;14965;50.660;13.226;2023-03-01T19:01:29;89.15;;;41.60;;
27223;SDS011;14965;50.660;13.226;2023-03-01T19:03:57;99.88;;;44.80;;
27223;SDS011;14965;50.660;13.226;2023-03-01T19:06:26;103.18;;;46.17;;
27223;SDS011;14965;50.660;13.226;2023-03-01T19:08:55;116.97;;;60.10;;
27223;SDS011;14965;50.660;13.226;2023-03-01T19:11:22;112.22;;;53.92;;
27223;SDS011;14965;50.660;13.226;2023-03-01T19:13:48;105.43;;;51.80;;
27223;SDS011;14965;50.660;13.226;2023-03-01T19:16:15;97.47;;;48.47;;
27223;SDS011;14965;50.660;13.226;2023-03-01T19:18:46;96.55;;;47.67;;
27223;SDS011;14965;50.660;13.226;2023-03-01T19:21:13;96.60;;;46.40;;
27223;SDS011;14965;50.660;13.226;2023-03-01T19:23:38;99.60;;;49.30;;
27223;SDS011;14965;50.660;13.226;2023-03-01T19:26:05;102.95;;;50.08;;
27223;SDS011;14965;50.660;13.226;2023-03-01T19:31:02;102.43;;;47.22;;
27223;SDS011;14965;50.660;13.226;2023-03-01T19:33:31;107.95;;;50.35;;
27223;SDS011;14965;50.660;13.226;2023-03-01T19:35:58;88.32;;;42.83;;
27223;SDS011;14965;50.660;13.226;2023-03-01T19:38:25;91.80;;;42.28;;
27223;SDS011;14965;50.660;13.226;2023-03-01T19:40:53;95.32;;;45.47;;
27223;SDS011;14965;50.660;13.226;2023-03-01T19:43:19;98.90;;;46.30;;
27223;SDS011;14965;50.660;13.226;2023-03-01T19:45:50;99.10;;;45.75;;
27223;SDS011;14965;50.660;13.226;2023-03-01T19:48:17;89.72;;;41.97;;
27223;SDS011;14965;50.660;13.226;2023-03-01T19:50:44;89.60;;;42.50;;
27223;SDS011;14965;50.660;13.226;2023-03-01T19:53:10;88.53;;;41.75;;
27223;SDS011;14965;50.660;13.226;2023-03-01T19:55:37;91.43;;;41.92;;
27223;SDS011;14965;50.660;13.226;2023-03-01T19:58:03;99.32;;;47.45;;
27223;SDS011;14965;50.660;13.226;2023-03-01T20:00:30;95.15;;;45.97;;
27223;SDS011;14965;50.660;13.226;2023-03-01T20:02:58;100.90;;;47.40;;
27223;SDS011;14965;50.660;13.226;2023-03-01T20:05:24;95.63;;;45.03;;
27223;SDS011;14965;50.660;13.226;2023-03-01T20:07:49;153.13;;;75.18;;
27223;SDS011;14965;50.660;13.226;2023-03-01T20:10:18;81.65;;;40.53;;
27223;SDS011;14965;50.660;13.226;2023-03-01T20:12:44;85.05;;;43.08;;
27223;SDS011;14965;50.660;13.226;2023-03-01T20:15:10;87.90;;;42.90;;
27223;SDS011;14965;50.660;13.226;2023-03-01T20:17:36;90.70;;;43.10;;
27223;SDS011;14965;50.660;13.226;2023-03-01T20:20:03;84.28;;;40.58;;
27223;SDS011;14965;50.660;13.226;2023-03-01T20:22:30;81.78;;;38.25;;
27223;SDS011;14965;50.660;13.226;2023-03-01T20:24:56;72.45;;;35.35;;
27223;SDS011;14965;50.660;13.226;2023-03-01T20:27:24;71.03;;;34.35;;